createdAt,value
2018-04-28T00:01:48.664Z,1.15
2018-04-28T00:04:16.245Z,1.10
2018-04-28T00:06:44.492Z,1.02
2018-04-28T00:09:11.968Z,1.55
2018-04-28T00:11:39.425Z,1.00
2018-04-28T00:14:06.903Z,1.12
2018-04-28T00:16:49.788Z,0.88
2018-04-28T00:19:17.252Z,0.98
2018-04-28T00:21:58.000Z,1.30
2018-04-28T00:24:43.059Z,0.88
2018-04-28T00:27:32.052Z,1.20
2018-04-28T00:30:04.908Z,1.17
2018-04-28T00:32:32.409Z,0.90
2018-04-28T00:35:00.665Z,1.12
2018-04-28T00:37:38.908Z,1.02
2018-04-28T00:40:07.989Z,0.75
2018-04-28T00:42:36.312Z,1.17
2018-04-28T00:48:45.393Z,1.00
2018-04-28T00:51:19.587Z,0.90
2018-04-28T00:53:47.071Z,0.90
2018-04-28T00:56:16.035Z,0.80
2018-04-28T00:58:46.840Z,1.02
2018-04-28T01:01:15.091Z,0.88
2018-04-28T01:03:44.364Z,1.00
2018-04-28T01:06:11.830Z,0.70
2018-04-28T01:08:40.122Z,1.00
2018-04-28T01:11:10.264Z,1.12
2018-04-28T01:13:43.050Z,1.10
2018-04-28T01:16:13.142Z,0.98
2018-04-28T01:22:04.967Z,1.15
2018-04-28T01:24:39.812Z,0.93
2018-04-28T01:27:20.565Z,0.90
2018-04-28T01:29:59.814Z,0.90
2018-04-28T01:32:27.287Z,0.98
2018-04-28T01:35:17.316Z,0.90
2018-04-28T01:37:47.697Z,0.90
2018-04-28T01:40:15.164Z,0.90
2018-04-28T01:42:49.313Z,1.12
2018-04-28T01:45:20.571Z,0.90
2018-04-28T01:48:00.950Z,1.20
2018-04-28T01:50:28.338Z,1.15
2018-04-28T01:52:57.846Z,0.90
2018-04-28T01:55:31.884Z,1.20
2018-04-28T01:58:07.083Z,1.02
2018-04-28T02:00:40.944Z,1.08
2018-04-28T02:03:12.190Z,0.80
2018-04-28T02:05:41.808Z,0.80
2018-04-28T02:08:09.268Z,0.93
2018-04-28T02:10:44.217Z,0.85
2018-04-28T02:13:14.168Z,1.23
2018-04-28T02:15:45.064Z,0.90
2018-04-28T02:21:40.033Z,0.88
2018-04-28T02:24:18.978Z,0.90
2018-04-28T02:26:48.007Z,0.90
2018-04-28T02:29:23.466Z,1.12
2018-04-28T02:31:53.836Z,1.30
2018-04-28T02:34:23.667Z,1.02
2018-04-28T02:36:52.093Z,1.10
2018-04-28T02:39:35.053Z,1.08
2018-04-28T02:42:04.365Z,1.10
2018-04-28T02:44:37.757Z,0.90
2018-04-28T02:47:15.133Z,0.88
2018-04-28T02:49:44.447Z,1.10
2018-04-28T02:52:31.420Z,0.95
2018-04-28T02:55:06.590Z,0.80
2018-04-28T02:57:49.852Z,1.02
2018-04-28T03:00:18.676Z,1.10
2018-04-28T03:02:46.905Z,1.25
2018-04-28T03:05:20.308Z,1.08
2018-04-28T03:07:50.249Z,0.70
2018-04-28T03:10:18.637Z,0.80
2018-04-28T03:12:46.120Z,1.02
2018-04-28T03:15:13.556Z,1.25
2018-04-28T03:18:02.457Z,1.30
2018-04-28T03:20:38.546Z,0.88
2018-04-28T03:23:09.612Z,1.10
2018-04-28T03:25:38.716Z,0.90
2018-04-28T03:28:17.904Z,1.00
2018-04-28T03:30:46.320Z,0.90
2018-04-28T03:33:23.305Z,1.00
2018-04-28T03:35:53.155Z,1.20
2018-04-28T03:38:45.396Z,1.10
2018-04-28T03:41:19.440Z,1.20
2018-04-28T03:43:47.676Z,1.20
2018-04-28T03:46:24.635Z,1.10
2018-04-28T03:52:16.130Z,0.80
2018-04-28T03:54:44.385Z,0.93
2018-04-28T04:00:26.206Z,1.20
2018-04-28T04:03:20.412Z,1.15
2018-04-28T04:05:54.452Z,1.10
2018-04-28T04:08:36.817Z,1.20
2018-04-28T04:11:37.852Z,1.23
2018-04-28T04:14:15.074Z,1.12
2018-04-28T04:20:13.676Z,1.40
2018-04-28T04:22:52.016Z,1.15
2018-04-28T04:28:30.932Z,1.37
2018-04-28T04:31:18.829Z,1.33
2018-04-28T04:33:50.618Z,1.20
2018-04-28T04:36:29.899Z,1.58
2018-04-28T04:42:39.988Z,1.67
2018-04-28T04:45:07.481Z,1.52
2018-04-28T04:47:36.411Z,1.17
2018-04-28T04:50:17.863Z,1.20
2018-04-28T04:52:47.140Z,1.42
2018-04-28T04:55:26.339Z,1.23
2018-04-28T04:58:15.376Z,1.33
2018-04-28T05:03:56.337Z,1.25
2018-04-28T05:06:30.658Z,1.42
2018-04-28T05:09:17.526Z,1.23
2018-04-28T05:15:09.931Z,1.45
2018-04-28T05:17:43.367Z,1.90
2018-04-28T05:20:34.637Z,1.40
2018-04-28T05:26:24.671Z,1.30
2018-04-28T05:29:03.907Z,1.10
2018-04-28T05:34:44.487Z,1.33
2018-04-28T05:40:20.332Z,1.60
2018-04-28T05:42:56.337Z,1.33
2018-04-28T05:45:35.583Z,1.20
2018-04-28T05:48:28.682Z,1.70
2018-04-28T05:51:07.857Z,1.50
2018-04-28T05:57:09.516Z,1.50
2018-04-28T05:59:47.579Z,0.95
2018-04-28T06:02:18.716Z,1.42
2018-04-28T06:04:58.032Z,1.37
2018-04-28T06:07:29.879Z,1.70
2018-04-28T06:10:07.077Z,1.40
2018-04-28T06:12:49.223Z,1.60
2018-04-28T06:15:26.202Z,2.20
2018-04-28T06:18:06.452Z,1.37
2018-04-28T06:20:38.693Z,1.20
2018-04-28T06:23:06.902Z,1.35
2018-04-28T06:25:34.396Z,2.08
2018-04-28T06:28:01.857Z,1.52
2018-04-28T06:30:29.317Z,1.50
2018-04-28T06:32:56.815Z,1.40
2018-04-28T06:35:24.273Z,1.33
2018-04-28T06:37:51.733Z,1.62
2018-04-28T06:40:19.184Z,1.37
2018-04-28T06:42:46.671Z,1.20
2018-04-28T06:45:14.168Z,1.42
2018-04-28T06:47:41.654Z,1.35
2018-04-28T06:50:09.133Z,1.95
2018-04-28T06:52:36.592Z,1.60
2018-04-28T06:55:04.055Z,1.60
2018-04-28T06:57:31.508Z,1.37
2018-04-28T06:59:58.984Z,2.40
2018-04-28T07:02:26.456Z,1.50
2018-04-28T07:04:53.931Z,1.12
2018-04-28T07:07:22.188Z,1.52
2018-04-28T07:09:49.668Z,1.50
2018-04-28T07:12:17.920Z,1.52
2018-04-28T07:14:45.399Z,1.70
2018-04-28T07:17:13.630Z,1.33
2018-04-28T07:19:41.100Z,1.40
2018-04-28T07:22:08.580Z,1.60
2018-04-28T07:24:36.067Z,1.50
2018-04-28T07:27:03.553Z,1.48
2018-04-28T07:29:31.496Z,1.20
2018-04-28T07:31:59.001Z,1.60
2018-04-28T07:34:26.461Z,1.50
2018-04-28T07:36:53.908Z,1.30
2018-04-28T07:39:21.382Z,1.33
2018-04-28T07:41:48.865Z,1.42
2018-04-28T07:44:17.120Z,1.40
2018-04-28T07:46:44.584Z,1.67
2018-04-28T07:49:12.044Z,2.00
2018-04-28T07:51:39.523Z,2.13
2018-04-28T07:54:07.768Z,1.55
2018-04-28T07:56:35.235Z,1.90
2018-04-28T07:59:02.688Z,1.37
2018-04-28T08:01:30.200Z,1.70
2018-04-28T08:03:57.656Z,1.50
2018-04-28T08:06:25.148Z,1.50
2018-04-28T08:08:52.595Z,1.27
2018-04-28T08:11:20.092Z,2.07
2018-04-28T08:13:47.551Z,1.50
2018-04-28T08:16:15.801Z,1.43
2018-04-28T08:18:43.252Z,1.60
2018-04-28T08:21:10.716Z,1.40
2018-04-28T08:23:38.213Z,1.50
2018-04-28T08:26:06.451Z,1.57
2018-04-28T08:28:33.927Z,1.70
2018-04-28T08:31:02.179Z,1.60
2018-04-28T08:33:29.667Z,1.57
2018-04-28T08:35:57.910Z,1.60
2018-04-28T08:38:25.387Z,1.47
2018-04-28T08:40:52.868Z,1.27
2018-04-28T08:43:21.083Z,1.57
2018-04-28T08:45:48.573Z,1.53
2018-04-28T08:48:16.984Z,1.40
2018-04-28T08:50:45.196Z,1.20
2018-04-28T08:53:12.662Z,1.43
2018-04-28T08:55:40.123Z,1.40
2018-04-28T08:58:07.620Z,1.40
2018-04-28T09:00:36.784Z,1.00
2018-04-28T09:03:04.258Z,1.20
2018-04-28T09:05:31.747Z,1.20
2018-04-28T09:07:59.225Z,1.40
2018-04-28T09:10:26.699Z,1.57
2018-04-28T09:12:54.185Z,1.00
2018-04-28T09:15:21.661Z,1.30
2018-04-28T09:17:49.888Z,1.47
2018-04-28T09:20:17.375Z,1.10
2018-04-28T09:22:44.848Z,1.10
2018-04-28T09:25:13.087Z,1.17
2018-04-28T09:27:40.564Z,1.10
2018-04-28T09:30:08.075Z,1.20
2018-04-28T09:32:35.559Z,1.10
2018-04-28T09:35:03.032Z,1.10
2018-04-28T09:37:30.520Z,0.80
2018-04-28T09:39:58.800Z,0.90
2018-04-28T09:42:26.261Z,1.43
2018-04-28T09:44:54.496Z,0.77
2018-04-28T09:47:21.964Z,0.93
2018-04-28T09:49:49.520Z,0.90
2018-04-28T09:52:16.993Z,1.30
2018-04-28T09:54:44.446Z,0.77
2018-04-28T09:57:11.927Z,0.77
2018-04-28T09:59:39.791Z,1.10
2018-04-28T10:02:13.657Z,0.90
2018-04-28T10:04:41.133Z,0.60
2018-04-28T10:07:08.607Z,0.80
2018-04-28T10:09:36.845Z,0.73
2018-04-28T10:12:04.305Z,0.70
2018-04-28T10:14:31.761Z,0.90
2018-04-28T10:16:59.236Z,1.07
2018-04-28T10:19:26.800Z,1.10
2018-04-28T10:21:54.296Z,1.00
2018-04-28T10:24:21.752Z,0.80
2018-04-28T10:26:49.235Z,0.73
2018-04-28T10:29:16.929Z,0.80
2018-04-28T10:31:44.431Z,1.17
2018-04-28T10:34:11.940Z,0.53
2018-04-28T10:36:39.433Z,0.97
2018-04-28T10:39:07.649Z,0.77
2018-04-28T10:41:35.130Z,0.90
2018-04-28T10:44:02.622Z,0.80
2018-04-28T10:46:30.861Z,0.97
2018-04-28T10:48:58.373Z,0.60
2018-04-28T10:51:25.827Z,0.70
2018-04-28T10:53:53.470Z,0.70
2018-04-28T10:56:20.840Z,1.10
2018-04-28T10:58:48.287Z,0.90
2018-04-28T11:01:15.751Z,0.90
2018-04-28T11:03:43.979Z,0.90
2018-04-28T11:06:11.500Z,0.80
2018-04-28T11:08:38.903Z,0.93
2018-04-28T11:11:06.375Z,0.80
2018-04-28T11:13:34.599Z,0.77
2018-04-28T11:16:02.844Z,0.70
2018-04-28T11:18:31.088Z,0.80
2018-04-28T11:20:58.568Z,1.57
2018-04-28T11:23:26.853Z,0.70
2018-04-28T11:25:54.341Z,0.67
2018-04-28T11:28:21.732Z,0.93
2018-04-28T11:30:49.204Z,1.00
2018-04-28T11:33:16.660Z,0.73
2018-04-28T11:35:44.143Z,0.60
2018-04-28T11:38:11.703Z,0.83
2018-04-28T11:40:39.120Z,0.50
2018-04-28T11:43:06.591Z,0.80
2018-04-28T11:45:34.032Z,0.80
2018-04-28T11:48:01.511Z,0.77
2018-04-28T11:50:29.783Z,1.17
2018-04-28T11:52:57.265Z,0.60
2018-04-28T11:55:24.740Z,0.93
2018-04-28T11:57:52.219Z,0.80
2018-04-28T12:00:19.750Z,0.80
2018-04-28T12:02:47.167Z,1.10
2018-04-28T12:05:14.672Z,0.70
2018-04-28T12:07:42.092Z,0.70
2018-04-28T12:10:10.297Z,0.70
2018-04-28T12:12:37.838Z,0.70
2018-04-28T12:15:05.220Z,0.80
2018-04-28T12:17:32.707Z,0.80
2018-04-28T12:20:00.169Z,1.00
2018-04-28T12:22:27.632Z,0.87
2018-04-28T12:24:55.091Z,0.80
2018-04-28T12:27:22.559Z,0.80
2018-04-28T12:29:50.847Z,0.80
2018-04-28T12:32:18.306Z,0.80
2018-04-28T12:34:46.543Z,0.70
2018-04-28T12:37:14.031Z,0.80
2018-04-28T12:39:42.290Z,0.70
2018-04-28T12:42:09.768Z,0.67
2018-04-28T12:44:37.990Z,0.77
2018-04-28T12:47:05.452Z,0.87
2018-04-28T12:49:32.923Z,0.83
2018-04-28T12:52:00.381Z,0.60
2018-04-28T12:54:27.832Z,0.90
2018-04-28T12:56:55.312Z,1.00
2018-04-28T12:59:23.415Z,0.87
2018-04-28T13:01:50.883Z,1.00
2018-04-28T13:04:18.375Z,0.90
2018-04-28T13:06:45.833Z,0.93
2018-04-28T13:09:13.304Z,0.60
2018-04-28T13:11:40.791Z,0.77
2018-04-28T13:14:09.080Z,0.90
2018-04-28T13:16:36.544Z,0.70
2018-04-28T13:19:04.005Z,0.80
2018-04-28T13:21:31.452Z,0.80
2018-04-28T13:23:58.912Z,1.13
2018-04-28T13:26:26.384Z,0.90
2018-04-28T13:28:53.865Z,0.80
2018-04-28T13:31:21.367Z,0.80
2018-04-28T13:33:49.615Z,0.93
2018-04-28T13:36:17.098Z,1.00
2018-04-28T13:38:45.340Z,0.90
2018-04-28T13:41:12.789Z,0.90
2018-04-28T13:43:40.256Z,0.80
2018-04-28T13:46:07.715Z,0.93
2018-04-28T13:48:35.176Z,0.70
2018-04-28T13:51:02.647Z,1.00
2018-04-28T13:53:30.128Z,0.93
2018-04-28T13:55:58.391Z,0.80
2018-04-28T13:58:25.819Z,1.10
2018-04-28T14:00:53.272Z,0.93
2018-04-28T14:03:20.743Z,0.57
2018-04-28T14:05:48.223Z,1.10
2018-04-28T14:08:16.460Z,1.00
2018-04-28T14:10:43.936Z,1.20
2018-04-28T14:13:11.404Z,0.83
2018-04-28T14:15:38.895Z,0.87
2018-04-28T14:18:06.367Z,0.70
2018-04-28T14:20:33.852Z,0.80
2018-04-28T14:23:01.295Z,0.60
2018-04-28T14:25:28.753Z,0.90
2018-04-28T14:27:56.221Z,0.83
2018-04-28T14:30:23.700Z,1.10
2018-04-28T14:32:51.140Z,0.97
2018-04-28T14:35:18.645Z,0.70
2018-04-28T14:37:46.860Z,1.00
2018-04-28T14:40:14.328Z,0.80
2018-04-28T14:42:41.812Z,0.80
2018-04-28T14:45:09.295Z,0.73
2018-04-28T14:47:36.769Z,0.73
2018-04-28T14:50:04.241Z,0.90
2018-04-28T14:52:31.715Z,0.80
2018-04-28T14:54:59.178Z,0.90
2018-04-28T14:57:26.622Z,1.10
2018-04-28T14:59:54.116Z,1.07
2018-04-28T15:02:21.584Z,0.90
2018-04-28T15:04:49.798Z,0.70
2018-04-28T15:07:17.256Z,0.67
2018-04-28T15:09:44.834Z,0.90
2018-04-28T15:12:12.225Z,0.90
2018-04-28T15:14:40.440Z,0.80
2018-04-28T15:17:08.005Z,0.73
2018-04-28T15:19:35.472Z,0.77
2018-04-28T15:22:02.930Z,0.90
2018-04-28T15:24:30.420Z,1.00
2018-04-28T15:26:57.885Z,0.90
2018-04-28T15:29:25.671Z,1.10
2018-04-28T15:31:53.197Z,0.80
2018-04-28T15:34:20.672Z,0.73
2018-04-28T15:36:48.900Z,0.80
2018-04-28T15:39:16.423Z,0.77
2018-04-28T15:41:43.875Z,0.80
2018-04-28T15:44:11.327Z,0.70
2018-04-28T15:46:38.832Z,0.80
2018-04-28T15:49:06.315Z,1.10
2018-04-28T15:51:33.794Z,1.10
2018-04-28T15:54:02.020Z,0.87
2018-04-28T15:56:29.477Z,0.80
2018-04-28T15:58:56.954Z,0.80
2018-04-28T16:01:24.439Z,0.73
2018-04-28T16:03:52.664Z,0.90
2018-04-28T16:06:20.225Z,0.83
2018-04-28T16:08:47.690Z,0.90
2018-04-28T16:11:15.188Z,0.70
2018-04-28T16:13:43.419Z,0.90
2018-04-28T16:16:10.868Z,0.70
2018-04-28T16:18:38.327Z,0.70
2018-04-28T16:21:05.796Z,0.70
2018-04-28T16:23:33.270Z,0.70
2018-04-28T16:26:00.722Z,0.80
2018-04-28T16:28:28.195Z,0.90
2018-04-28T16:30:55.674Z,0.70
2018-04-28T16:33:23.884Z,0.90
2018-04-28T16:35:51.382Z,1.00
2018-04-28T16:38:18.860Z,0.80
2018-04-28T16:40:47.115Z,0.60
2018-04-28T16:43:14.601Z,0.87
2018-04-28T16:45:42.800Z,0.90
2018-04-28T16:48:10.260Z,0.77
2018-04-28T16:50:37.825Z,0.77
2018-04-28T16:53:05.202Z,1.00
2018-04-28T16:55:32.672Z,0.83
2018-04-28T16:58:00.119Z,0.70
2018-04-28T17:00:27.572Z,0.70
2018-04-28T17:02:55.027Z,0.60
2018-04-28T17:05:22.546Z,0.80
2018-04-28T17:07:50.051Z,0.70
2018-04-28T17:10:17.507Z,0.80
2018-04-28T17:12:44.973Z,0.90
2018-04-28T17:15:12.468Z,0.97
2018-04-28T17:17:52.645Z,1.10
2018-04-28T17:20:20.150Z,1.03
2018-04-28T17:22:47.619Z,0.73
2018-04-28T17:25:15.840Z,1.00
2018-04-28T17:27:43.283Z,0.97
2018-04-28T17:30:10.740Z,1.00
2018-04-28T17:32:38.209Z,1.03
2018-04-28T17:35:05.649Z,0.90
2018-04-28T17:37:33.137Z,0.80
2018-04-28T17:40:00.623Z,0.80
2018-04-28T17:42:28.195Z,0.90
2018-04-28T17:44:55.576Z,1.23
2018-04-28T17:47:23.069Z,4.00
2018-04-28T17:49:50.555Z,4.10
2018-04-28T17:52:17.995Z,2.50
2018-04-28T17:54:45.482Z,3.30
2018-04-28T17:57:12.961Z,2.80
2018-04-28T17:59:40.419Z,2.30
2018-04-28T18:02:07.867Z,2.20
2018-04-28T18:04:36.139Z,1.77
2018-04-28T18:07:04.360Z,1.60
2018-04-28T18:09:31.842Z,1.10
2018-04-28T18:12:00.840Z,0.90
2018-04-28T18:14:28.325Z,1.00
2018-04-28T18:16:56.560Z,1.03
2018-04-28T18:19:24.039Z,0.77
2018-04-28T18:21:51.496Z,0.70
2018-04-28T18:24:18.960Z,0.83
2018-04-28T18:26:46.436Z,0.90
2018-04-28T18:29:14.805Z,0.80
2018-04-28T18:31:42.286Z,0.90
2018-04-28T18:34:09.759Z,0.63
2018-04-28T18:36:37.227Z,0.93
2018-04-28T18:39:05.548Z,0.90
2018-04-28T18:41:33.784Z,0.77
2018-04-28T18:44:01.284Z,0.90
2018-04-28T18:46:29.538Z,0.57
2018-04-28T18:48:56.980Z,0.63
2018-04-28T18:51:24.447Z,0.80
2018-04-28T18:53:51.907Z,0.60
2018-04-28T18:56:19.379Z,0.70
2018-04-28T18:58:46.856Z,0.90
2018-04-28T19:01:15.068Z,0.90
2018-04-28T19:03:42.540Z,0.80
2018-04-28T19:06:10.084Z,0.90
2018-04-28T19:08:37.537Z,1.00
2018-04-28T19:11:04.968Z,1.10
2018-04-28T19:13:32.433Z,1.03
2018-04-28T19:15:59.903Z,0.73
2018-04-28T19:18:27.365Z,0.90
2018-04-28T19:20:54.935Z,0.80
2018-04-28T19:23:22.335Z,0.87
2018-04-28T19:25:50.607Z,1.00
2018-04-28T19:28:18.884Z,0.60
2018-04-28T19:30:46.329Z,0.70
2018-04-28T19:33:13.813Z,0.80
2018-04-28T19:35:42.061Z,0.90
2018-04-28T19:38:09.517Z,1.70
2018-04-28T19:40:37.003Z,2.57
2018-04-28T19:43:05.215Z,3.40
2018-04-28T19:45:32.680Z,3.00
2018-04-28T19:48:00.154Z,2.40
2018-04-28T19:50:27.625Z,2.93
2018-04-28T19:52:55.875Z,3.00
2018-04-28T19:55:24.092Z,3.03
2018-04-28T19:57:52.379Z,4.93
2018-04-28T20:00:20.600Z,4.63
2018-04-28T20:02:48.080Z,2.93
2018-04-28T20:05:15.543Z,1.97
2018-04-28T20:07:43.049Z,1.80
2018-04-28T20:10:10.497Z,1.80
2018-04-28T20:12:37.981Z,1.70
2018-04-28T20:15:05.463Z,1.87
2018-04-28T20:17:32.966Z,1.50
2018-04-28T20:20:01.182Z,1.10
2018-04-28T20:22:40.506Z,1.70
2018-04-28T20:25:20.047Z,1.50
2018-04-28T20:27:47.527Z,1.17
2018-04-28T20:30:15.099Z,0.90
2018-04-28T20:32:43.278Z,1.00
2018-04-28T20:35:10.728Z,1.10
2018-04-28T20:37:38.200Z,1.20
2018-04-28T20:40:05.654Z,1.50
2018-04-28T20:42:33.140Z,1.10
2018-04-28T20:45:01.368Z,1.27
2018-04-28T20:47:28.843Z,1.30
2018-04-28T20:49:56.287Z,1.37
2018-04-28T20:52:23.772Z,1.10
2018-04-28T20:54:52.008Z,1.10
2018-04-28T20:57:19.468Z,1.20
2018-04-28T20:59:47.017Z,1.10
2018-04-28T21:02:15.187Z,1.10
2018-04-28T21:04:42.641Z,1.13
2018-04-28T21:07:10.104Z,1.30
2018-04-28T21:09:37.585Z,0.90
2018-04-28T21:12:05.049Z,0.80
2018-04-28T21:14:32.539Z,1.00
2018-04-28T21:17:00.022Z,0.90
2018-04-28T21:19:27.492Z,0.90
2018-04-28T21:21:54.967Z,1.00
2018-04-28T21:24:22.437Z,0.80
2018-04-28T21:26:49.891Z,0.90
2018-04-28T21:29:17.665Z,1.00
2018-04-28T21:31:45.188Z,1.00
2018-04-28T21:34:12.639Z,1.07
2018-04-28T21:36:40.111Z,1.10
2018-04-28T21:39:07.565Z,0.90
2018-04-28T21:41:35.008Z,1.10
2018-04-28T21:44:02.456Z,1.07
2018-04-28T21:46:29.990Z,0.90
2018-04-28T21:48:57.393Z,1.00
2018-04-28T21:51:24.880Z,0.80
2018-04-28T21:53:52.346Z,0.63
2018-04-28T21:56:19.793Z,0.80
2018-04-28T21:58:47.269Z,0.73
2018-04-28T22:01:15.544Z,0.90
2018-04-28T22:03:43.784Z,0.87
2018-04-28T22:06:11.251Z,0.90
2018-04-28T22:08:38.728Z,0.90
2018-04-28T22:11:06.992Z,1.10
2018-04-28T22:13:34.456Z,1.00
2018-04-28T22:16:02.672Z,0.93
2018-04-28T22:18:30.157Z,0.83
2018-04-28T22:20:57.613Z,1.07
2018-04-28T22:23:25.071Z,0.80
2018-04-28T22:25:52.520Z,1.20
2018-04-28T22:28:20.064Z,0.77
2018-04-28T22:30:47.483Z,1.10
2018-04-28T22:33:15.723Z,0.93
2018-04-28T22:35:43.234Z,0.82
2018-04-28T22:38:10.727Z,0.75
2018-04-28T22:40:38.984Z,1.02
2018-04-28T22:43:06.454Z,0.80
2018-04-28T22:45:33.910Z,0.97
2018-04-28T22:48:01.370Z,0.70
2018-04-28T22:50:28.856Z,0.70
2018-04-28T22:52:56.347Z,0.90
2018-04-28T22:55:23.824Z,0.80
2018-04-28T22:57:51.307Z,0.80
2018-04-28T23:00:22.610Z,0.90
2018-04-28T23:02:50.867Z,1.02
2018-04-28T23:05:18.320Z,0.80
2018-04-28T23:07:46.547Z,0.85
2018-04-28T23:10:14.016Z,0.80
2018-04-28T23:12:41.488Z,0.75
2018-04-28T23:15:08.987Z,1.17
2018-04-28T23:17:37.253Z,1.17
2018-04-28T23:20:05.547Z,0.85
2018-04-28T23:22:33.776Z,0.90
2018-04-28T23:25:01.268Z,1.10
2018-04-28T23:27:29.527Z,0.80
2018-04-28T23:29:57.003Z,1.15
2018-04-28T23:32:25.215Z,1.27
2018-04-28T23:34:53.448Z,0.90
2018-04-28T23:37:21.704Z,1.52
2018-04-28T23:39:49.181Z,1.20
2018-04-28T23:42:17.427Z,1.27
2018-04-28T23:44:44.894Z,1.08
2018-04-28T23:47:12.376Z,1.02
2018-04-28T23:49:40.592Z,1.20
2018-04-28T23:52:08.081Z,1.17
2018-04-28T23:54:35.588Z,0.90
2018-04-28T23:57:03.036Z,0.80
2018-04-28T23:59:30.959Z,0.80
